sensor_id;sensor_type;location;lat;lon;timestamp;P1;durP1;ratioP1;P2;durP2;ratioP2
33802;SDS011;20110;53.120;5.786;2023-06-24T00:00:08;21.00;;;13.30;;
33802;SDS011;20110;53.120;5.786;2023-06-24T00:02:37;17.02;;;12.73;;
33802;SDS011;20110;53.120;5.786;2023-06-24T00:05:03;21.88;;;14.30;;
33802;SDS011;20110;53.120;5.786;2023-06-24T00:07:31;22.77;;;13.93;;
33802;SDS011;20110;53.120;5.786;2023-06-24T00:10:01;19.48;;;14.20;;
33802;SDS011;20110;53.120;5.786;2023-06-24T00:12:28;23.45;;;14.88;;
33802;SDS011;20110;53.120;5.786;2023-06-24T00:14:54;18.35;;;12.88;;
33802;SDS011;20110;53.120;5.786;2023-06-24T00:17:20;19.88;;;12.55;;
33802;SDS011;20110;53.120;5.786;2023-06-24T00:19:46;18.33;;;12.77;;
33802;SDS011;20110;53.120;5.786;2023-06-24T00:22:11;21.23;;;13.00;;
33802;SDS011;20110;53.120;5.786;2023-06-24T00:24:37;17.48;;;12.75;;
33802;SDS011;20110;53.120;5.786;2023-06-24T00:27:05;19.00;;;12.80;;
33802;SDS011;20110;53.120;5.786;2023-06-24T00:29:30;18.60;;;12.95;;
33802;SDS011;20110;53.120;5.786;2023-06-24T00:31:56;25.73;;;12.95;;
33802;SDS011;20110;53.120;5.786;2023-06-24T00:34:22;15.30;;;12.82;;
33802;SDS011;20110;53.120;5.786;2023-06-24T00:36:48;24.42;;;13.13;;
33802;SDS011;20110;53.120;5.786;2023-06-24T00:39:15;19.35;;;13.13;;
33802;SDS011;20110;53.120;5.786;2023-06-24T00:41:41;17.95;;;12.55;;
33802;SDS011;20110;53.120;5.786;2023-06-24T00:44:07;21.80;;;13.77;;
33802;SDS011;20110;53.120;5.786;2023-06-24T00:46:33;21.60;;;13.27;;
33802;SDS011;20110;53.120;5.786;2023-06-24T00:49:00;20.73;;;14.20;;
33802;SDS011;20110;53.120;5.786;2023-06-24T00:51:27;25.48;;;15.70;;
33802;SDS011;20110;53.120;5.786;2023-06-24T00:53:56;25.33;;;15.10;;
33802;SDS011;20110;53.120;5.786;2023-06-24T00:56:34;26.92;;;15.88;;
33802;SDS011;20110;53.120;5.786;2023-06-24T00:59:07;30.38;;;16.85;;
33802;SDS011;20110;53.120;5.786;2023-06-24T01:01:37;22.90;;;15.05;;
33802;SDS011;20110;53.120;5.786;2023-06-24T01:04:04;28.40;;;16.20;;
33802;SDS011;20110;53.120;5.786;2023-06-24T01:06:31;20.92;;;15.00;;
33802;SDS011;20110;53.120;5.786;2023-06-24T01:09:00;31.55;;;15.32;;
33802;SDS011;20110;53.120;5.786;2023-06-24T01:11:29;26.77;;;14.52;;
33802;SDS011;20110;53.120;5.786;2023-06-24T01:13:56;27.50;;;15.30;;
33802;SDS011;20110;53.120;5.786;2023-06-24T01:16:26;25.70;;;15.35;;
33802;SDS011;20110;53.120;5.786;2023-06-24T01:22:30;26.42;;;16.33;;
33802;SDS011;20110;53.120;5.786;2023-06-24T01:25:44;23.50;;;15.65;;
33802;SDS011;20110;53.120;5.786;2023-06-24T01:28:30;22.10;;;14.90;;
33802;SDS011;20110;53.120;5.786;2023-06-24T01:36:56;25.63;;;14.40;;
33802;SDS011;20110;53.120;5.786;2023-06-24T01:39:33;26.30;;;15.73;;
33802;SDS011;20110;53.120;5.786;2023-06-24T01:42:13;21.33;;;13.75;;
33802;SDS011;20110;53.120;5.786;2023-06-24T01:44:42;27.35;;;15.25;;
33802;SDS011;20110;53.120;5.786;2023-06-24T01:47:12;23.60;;;15.23;;
33802;SDS011;20110;53.120;5.786;2023-06-24T01:49:46;26.60;;;14.73;;
33802;SDS011;20110;53.120;5.786;2023-06-24T01:52:17;26.65;;;15.20;;
33802;SDS011;20110;53.120;5.786;2023-06-24T01:54:47;22.98;;;15.20;;
33802;SDS011;20110;53.120;5.786;2023-06-24T01:57:17;32.33;;;15.60;;
33802;SDS011;20110;53.120;5.786;2023-06-24T01:59:45;29.25;;;15.13;;
33802;SDS011;20110;53.120;5.786;2023-06-24T02:02:13;23.10;;;15.02;;
33802;SDS011;20110;53.120;5.786;2023-06-24T02:04:39;24.90;;;14.77;;
33802;SDS011;20110;53.120;5.786;2023-06-24T02:07:08;42.55;;;15.32;;
33802;SDS011;20110;53.120;5.786;2023-06-24T02:09:36;18.60;;;12.73;;
33802;SDS011;20110;53.120;5.786;2023-06-24T02:12:04;22.58;;;15.15;;
33802;SDS011;20110;53.120;5.786;2023-06-24T02:14:31;27.00;;;14.30;;
33802;SDS011;20110;53.120;5.786;2023-06-24T02:16:59;20.92;;;14.18;;
33802;SDS011;20110;53.120;5.786;2023-06-24T02:19:30;22.98;;;14.18;;
33802;SDS011;20110;53.120;5.786;2023-06-24T02:21:57;22.20;;;14.57;;
33802;SDS011;20110;53.120;5.786;2023-06-24T02:24:26;25.08;;;14.68;;
33802;SDS011;20110;53.120;5.786;2023-06-24T02:26:54;25.55;;;14.82;;
33802;SDS011;20110;53.120;5.786;2023-06-24T02:29:24;30.58;;;15.73;;
33802;SDS011;20110;53.120;5.786;2023-06-24T02:31:54;24.63;;;14.48;;
33802;SDS011;20110;53.120;5.786;2023-06-24T02:34:20;27.25;;;15.68;;
33802;SDS011;20110;53.120;5.786;2023-06-24T02:36:48;25.63;;;15.18;;
33802;SDS011;20110;53.120;5.786;2023-06-24T02:39:14;27.55;;;15.05;;
33802;SDS011;20110;53.120;5.786;2023-06-24T02:41:40;26.25;;;15.98;;
33802;SDS011;20110;53.120;5.786;2023-06-24T02:44:07;24.17;;;15.15;;
33802;SDS011;20110;53.120;5.786;2023-06-24T02:46:33;24.02;;;15.48;;
33802;SDS011;20110;53.120;5.786;2023-06-24T02:49:01;36.42;;;15.43;;
33802;SDS011;20110;53.120;5.786;2023-06-24T02:51:28;23.13;;;15.40;;
33802;SDS011;20110;53.120;5.786;2023-06-24T02:53:55;23.33;;;15.02;;
33802;SDS011;20110;53.120;5.786;2023-06-24T02:56:23;28.73;;;16.20;;
33802;SDS011;20110;53.120;5.786;2023-06-24T02:58:53;27.00;;;16.13;;
33802;SDS011;20110;53.120;5.786;2023-06-24T03:01:20;24.58;;;15.35;;
33802;SDS011;20110;53.120;5.786;2023-06-24T03:03:50;24.38;;;15.38;;
33802;SDS011;20110;53.120;5.786;2023-06-24T03:06:19;27.58;;;14.88;;
33802;SDS011;20110;53.120;5.786;2023-06-24T03:08:47;28.08;;;14.88;;
33802;SDS011;20110;53.120;5.786;2023-06-24T03:11:16;22.67;;;14.85;;
33802;SDS011;20110;53.120;5.786;2023-06-24T03:13:42;31.75;;;15.15;;
33802;SDS011;20110;53.120;5.786;2023-06-24T03:16:09;20.00;;;14.55;;
33802;SDS011;20110;53.120;5.786;2023-06-24T03:18:46;20.25;;;14.30;;
33802;SDS011;20110;53.120;5.786;2023-06-24T03:21:12;27.38;;;15.23;;
33802;SDS011;20110;53.120;5.786;2023-06-24T03:23:37;21.98;;;15.02;;
33802;SDS011;20110;53.120;5.786;2023-06-24T03:26:05;23.67;;;14.10;;
33802;SDS011;20110;53.120;5.786;2023-06-24T03:28:32;22.08;;;15.00;;
33802;SDS011;20110;53.120;5.786;2023-06-24T03:30:58;22.33;;;15.25;;
33802;SDS011;20110;53.120;5.786;2023-06-24T03:33:24;21.00;;;14.27;;
33802;SDS011;20110;53.120;5.786;2023-06-24T03:35:51;24.33;;;14.32;;
33802;SDS011;20110;53.120;5.786;2023-06-24T03:38:18;25.02;;;16.63;;
33802;SDS011;20110;53.120;5.786;2023-06-24T03:40:44;27.13;;;14.73;;
33802;SDS011;20110;53.120;5.786;2023-06-24T03:43:10;21.95;;;15.60;;
33802;SDS011;20110;53.120;5.786;2023-06-24T03:45:36;27.40;;;14.95;;
33802;SDS011;20110;53.120;5.786;2023-06-24T03:48:01;27.05;;;15.68;;
33802;SDS011;20110;53.120;5.786;2023-06-24T03:50:27;23.08;;;14.60;;
33802;SDS011;20110;53.120;5.786;2023-06-24T03:52:53;25.35;;;14.55;;
33802;SDS011;20110;53.120;5.786;2023-06-24T03:55:19;27.63;;;15.48;;
33802;SDS011;20110;53.120;5.786;2023-06-24T03:57:45;24.50;;;14.93;;
33802;SDS011;20110;53.120;5.786;2023-06-24T04:00:11;24.88;;;14.70;;
33802;SDS011;20110;53.120;5.786;2023-06-24T04:02:41;22.63;;;13.70;;
33802;SDS011;20110;53.120;5.786;2023-06-24T04:05:09;22.55;;;13.90;;
33802;SDS011;20110;53.120;5.786;2023-06-24T04:07:35;21.45;;;14.70;;
33802;SDS011;20110;53.120;5.786;2023-06-24T04:10:04;25.10;;;13.90;;
33802;SDS011;20110;53.120;5.786;2023-06-24T04:12:37;21.15;;;14.13;;
33802;SDS011;20110;53.120;5.786;2023-06-24T04:15:03;23.42;;;14.30;;
33802;SDS011;20110;53.120;5.786;2023-06-24T04:17:30;22.98;;;14.73;;
33802;SDS011;20110;53.120;5.786;2023-06-24T04:19:56;23.60;;;14.85;;
33802;SDS011;20110;53.120;5.786;2023-06-24T04:22:24;21.40;;;14.55;;
33802;SDS011;20110;53.120;5.786;2023-06-24T04:24:51;26.42;;;14.32;;
33802;SDS011;20110;53.120;5.786;2023-06-24T04:27:16;32.65;;;15.93;;
33802;SDS011;20110;53.120;5.786;2023-06-24T04:29:42;35.33;;;16.08;;
33802;SDS011;20110;53.120;5.786;2023-06-24T04:32:08;24.60;;;15.30;;
33802;SDS011;20110;53.120;5.786;2023-06-24T04:34:34;29.45;;;15.55;;
33802;SDS011;20110;53.120;5.786;2023-06-24T04:36:59;20.35;;;14.63;;
33802;SDS011;20110;53.120;5.786;2023-06-24T04:39:25;27.48;;;15.52;;
33802;SDS011;20110;53.120;5.786;2023-06-24T04:41:52;25.85;;;15.35;;
33802;SDS011;20110;53.120;5.786;2023-06-24T04:44:17;25.75;;;15.18;;
33802;SDS011;20110;53.120;5.786;2023-06-24T04:46:45;24.08;;;14.80;;
33802;SDS011;20110;53.120;5.786;2023-06-24T04:49:11;23.48;;;15.48;;
33802;SDS011;20110;53.120;5.786;2023-06-24T04:51:37;23.52;;;15.88;;
33802;SDS011;20110;53.120;5.786;2023-06-24T04:54:03;28.27;;;15.65;;
33802;SDS011;20110;53.120;5.786;2023-06-24T04:56:29;31.63;;;16.00;;
33802;SDS011;20110;53.120;5.786;2023-06-24T04:58:55;22.02;;;14.65;;
33802;SDS011;20110;53.120;5.786;2023-06-24T05:01:21;25.63;;;15.68;;
33802;SDS011;20110;53.120;5.786;2023-06-24T05:03:47;26.95;;;15.30;;
33802;SDS011;20110;53.120;5.786;2023-06-24T05:06:13;28.65;;;15.18;;
33802;SDS011;20110;53.120;5.786;2023-06-24T05:08:39;29.08;;;15.82;;
33802;SDS011;20110;53.120;5.786;2023-06-24T05:11:05;24.95;;;15.13;;
33802;SDS011;20110;53.120;5.786;2023-06-24T05:13:30;30.17;;;15.52;;
33802;SDS011;20110;53.120;5.786;2023-06-24T05:15:56;27.50;;;16.40;;
33802;SDS011;20110;53.120;5.786;2023-06-24T05:18:22;25.42;;;15.13;;
33802;SDS011;20110;53.120;5.786;2023-06-24T05:20:48;23.30;;;14.65;;
33802;SDS011;20110;53.120;5.786;2023-06-24T05:23:13;21.30;;;14.60;;
33802;SDS011;20110;53.120;5.786;2023-06-24T05:25:39;20.95;;;14.63;;
33802;SDS011;20110;53.120;5.786;2023-06-24T05:28:05;21.00;;;14.15;;
33802;SDS011;20110;53.120;5.786;2023-06-24T05:30:31;21.38;;;13.93;;
33802;SDS011;20110;53.120;5.786;2023-06-24T05:32:57;22.27;;;14.30;;
33802;SDS011;20110;53.120;5.786;2023-06-24T05:35:22;26.77;;;14.88;;
33802;SDS011;20110;53.120;5.786;2023-06-24T05:37:48;27.67;;;14.23;;
33802;SDS011;20110;53.120;5.786;2023-06-24T05:40:14;19.25;;;13.25;;
33802;SDS011;20110;53.120;5.786;2023-06-24T05:42:40;19.23;;;13.35;;
33802;SDS011;20110;53.120;5.786;2023-06-24T05:45:06;19.73;;;13.75;;
33802;SDS011;20110;53.120;5.786;2023-06-24T05:47:32;15.82;;;11.82;;
33802;SDS011;20110;53.120;5.786;2023-06-24T05:49:58;19.15;;;12.85;;
33802;SDS011;20110;53.120;5.786;2023-06-24T05:52:24;16.77;;;11.85;;
33802;SDS011;20110;53.120;5.786;2023-06-24T05:54:50;17.50;;;12.43;;
33802;SDS011;20110;53.120;5.786;2023-06-24T05:57:16;20.20;;;12.32;;
33802;SDS011;20110;53.120;5.786;2023-06-24T05:59:42;18.85;;;12.55;;
33802;SDS011;20110;53.120;5.786;2023-06-24T06:02:07;16.98;;;11.68;;
33802;SDS011;20110;53.120;5.786;2023-06-24T06:04:33;18.60;;;12.32;;
33802;SDS011;20110;53.120;5.786;2023-06-24T06:06:59;17.58;;;11.40;;
33802;SDS011;20110;53.120;5.786;2023-06-24T06:09:25;24.35;;;11.38;;
33802;SDS011;20110;53.120;5.786;2023-06-24T06:11:51;14.80;;;11.65;;
33802;SDS011;20110;53.120;5.786;2023-06-24T06:14:16;18.52;;;11.30;;
33802;SDS011;20110;53.120;5.786;2023-06-24T06:16:42;16.23;;;11.25;;
33802;SDS011;20110;53.120;5.786;2023-06-24T06:19:08;15.93;;;11.15;;
33802;SDS011;20110;53.120;5.786;2023-06-24T06:21:35;12.88;;;10.27;;
33802;SDS011;20110;53.120;5.786;2023-06-24T06:24:02;15.57;;;10.90;;
33802;SDS011;20110;53.120;5.786;2023-06-24T06:26:29;15.38;;;10.77;;
33802;SDS011;20110;53.120;5.786;2023-06-24T06:28:55;17.17;;;10.73;;
33802;SDS011;20110;53.120;5.786;2023-06-24T06:31:20;13.00;;;10.43;;
33802;SDS011;20110;53.120;5.786;2023-06-24T06:33:47;17.85;;;10.73;;
33802;SDS011;20110;53.120;5.786;2023-06-24T06:36:13;16.08;;;11.20;;
33802;SDS011;20110;53.120;5.786;2023-06-24T06:38:40;14.27;;;10.40;;
33802;SDS011;20110;53.120;5.786;2023-06-24T06:41:06;13.00;;;10.13;;
33802;SDS011;20110;53.120;5.786;2023-06-24T06:43:32;17.13;;;10.73;;
33802;SDS011;20110;53.120;5.786;2023-06-24T06:45:59;22.05;;;9.32;;
33802;SDS011;20110;53.120;5.786;2023-06-24T06:48:24;17.30;;;10.52;;
33802;SDS011;20110;53.120;5.786;2023-06-24T06:50:50;19.35;;;9.45;;
33802;SDS011;20110;53.120;5.786;2023-06-24T06:53:18;17.83;;;9.93;;
33802;SDS011;20110;53.120;5.786;2023-06-24T06:55:44;15.60;;;10.38;;
33802;SDS011;20110;53.120;5.786;2023-06-24T06:58:10;11.23;;;9.52;;
33802;SDS011;20110;53.120;5.786;2023-06-24T07:00:36;11.15;;;9.50;;
33802;SDS011;20110;53.120;5.786;2023-06-24T07:03:02;16.33;;;9.77;;
33802;SDS011;20110;53.120;5.786;2023-06-24T07:05:28;11.55;;;9.55;;
33802;SDS011;20110;53.120;5.786;2023-06-24T07:07:54;17.15;;;10.13;;
33802;SDS011;20110;53.120;5.786;2023-06-24T07:10:19;14.50;;;11.00;;
33802;SDS011;20110;53.120;5.786;2023-06-24T07:12:45;13.32;;;9.82;;
33802;SDS011;20110;53.120;5.786;2023-06-24T07:15:11;17.05;;;11.10;;
33802;SDS011;20110;53.120;5.786;2023-06-24T07:17:37;24.95;;;10.95;;
33802;SDS011;20110;53.120;5.786;2023-06-24T07:20:03;16.08;;;10.70;;
33802;SDS011;20110;53.120;5.786;2023-06-24T07:22:30;15.85;;;10.52;;
33802;SDS011;20110;53.120;5.786;2023-06-24T07:24:56;12.48;;;10.40;;
33802;SDS011;20110;53.120;5.786;2023-06-24T07:27:22;8.80;;;7.55;;
33802;SDS011;20110;53.120;5.786;2023-06-24T07:29:50;10.63;;;7.05;;
33802;SDS011;20110;53.120;5.786;2023-06-24T07:32:15;13.93;;;5.75;;
33802;SDS011;20110;53.120;5.786;2023-06-24T07:34:41;7.55;;;6.22;;
33802;SDS011;20110;53.120;5.786;2023-06-24T07:37:07;9.93;;;5.63;;
33802;SDS011;20110;53.120;5.786;2023-06-24T07:39:33;11.38;;;6.10;;
33802;SDS011;20110;53.120;5.786;2023-06-24T07:41:59;8.95;;;6.38;;
33802;SDS011;20110;53.120;5.786;2023-06-24T07:44:24;9.40;;;6.95;;
33802;SDS011;20110;53.120;5.786;2023-06-24T07:46:50;12.20;;;6.70;;
33802;SDS011;20110;53.120;5.786;2023-06-24T07:49:16;8.75;;;6.32;;
33802;SDS011;20110;53.120;5.786;2023-06-24T07:51:43;9.98;;;6.30;;
33802;SDS011;20110;53.120;5.786;2023-06-24T07:54:10;7.53;;;5.80;;
33802;SDS011;20110;53.120;5.786;2023-06-24T07:56:36;7.35;;;5.45;;
33802;SDS011;20110;53.120;5.786;2023-06-24T07:59:02;6.35;;;5.45;;
33802;SDS011;20110;53.120;5.786;2023-06-24T08:01:28;12.55;;;6.38;;
33802;SDS011;20110;53.120;5.786;2023-06-24T08:03:54;10.20;;;6.30;;
33802;SDS011;20110;53.120;5.786;2023-06-24T08:06:20;9.52;;;6.75;;
33802;SDS011;20110;53.120;5.786;2023-06-24T08:08:45;11.00;;;7.45;;
33802;SDS011;20110;53.120;5.786;2023-06-24T08:11:11;7.63;;;5.82;;
33802;SDS011;20110;53.120;5.786;2023-06-24T08:13:38;11.13;;;8.07;;
33802;SDS011;20110;53.120;5.786;2023-06-24T08:16:04;10.05;;;7.18;;
33802;SDS011;20110;53.120;5.786;2023-06-24T08:18:30;9.05;;;7.90;;
33802;SDS011;20110;53.120;5.786;2023-06-24T08:20:56;10.57;;;7.28;;
33802;SDS011;20110;53.120;5.786;2023-06-24T08:23:22;13.48;;;6.72;;
33802;SDS011;20110;53.120;5.786;2023-06-24T08:25:48;12.07;;;7.30;;
33802;SDS011;20110;53.120;5.786;2023-06-24T08:28:14;8.13;;;6.85;;
33802;SDS011;20110;53.120;5.786;2023-06-24T08:30:39;13.13;;;7.47;;
33802;SDS011;20110;53.120;5.786;2023-06-24T08:33:05;11.35;;;7.07;;
33802;SDS011;20110;53.120;5.786;2023-06-24T08:35:31;9.60;;;7.35;;
33802;SDS011;20110;53.120;5.786;2023-06-24T08:37:57;8.85;;;6.53;;
33802;SDS011;20110;53.120;5.786;2023-06-24T08:40:22;8.75;;;7.53;;
33802;SDS011;20110;53.120;5.786;2023-06-24T08:42:48;10.02;;;7.05;;
33802;SDS011;20110;53.120;5.786;2023-06-24T08:45:14;8.98;;;6.13;;
33802;SDS011;20110;53.120;5.786;2023-06-24T08:47:41;8.02;;;5.18;;
33802;SDS011;20110;53.120;5.786;2023-06-24T08:50:11;15.63;;;6.13;;
33802;SDS011;20110;53.120;5.786;2023-06-24T08:52:42;7.55;;;6.22;;
33802;SDS011;20110;53.120;5.786;2023-06-24T08:55:15;17.30;;;6.30;;
33802;SDS011;20110;53.120;5.786;2023-06-24T08:57:42;9.27;;;6.35;;
33802;SDS011;20110;53.120;5.786;2023-06-24T09:00:08;7.80;;;5.53;;
33802;SDS011;20110;53.120;5.786;2023-06-24T09:02:35;12.77;;;6.00;;
33802;SDS011;20110;53.120;5.786;2023-06-24T09:05:04;9.18;;;5.93;;
33802;SDS011;20110;53.120;5.786;2023-06-24T09:07:31;6.80;;;5.70;;
33802;SDS011;20110;53.120;5.786;2023-06-24T09:09:57;7.38;;;6.07;;
33802;SDS011;20110;53.120;5.786;2023-06-24T09:12:26;8.90;;;5.43;;
33802;SDS011;20110;53.120;5.786;2023-06-24T09:14:53;7.18;;;4.85;;
33802;SDS011;20110;53.120;5.786;2023-06-24T09:17:19;8.35;;;4.53;;
33802;SDS011;20110;53.120;5.786;2023-06-24T09:19:47;5.57;;;4.97;;
33802;SDS011;20110;53.120;5.786;2023-06-24T09:22:14;11.82;;;5.60;;
33802;SDS011;20110;53.120;5.786;2023-06-24T09:24:46;9.52;;;5.55;;
33802;SDS011;20110;53.120;5.786;2023-06-24T09:27:14;6.55;;;4.57;;
33802;SDS011;20110;53.120;5.786;2023-06-24T09:29:44;7.10;;;4.85;;
33802;SDS011;20110;53.120;5.786;2023-06-24T09:32:10;6.30;;;4.90;;
33802;SDS011;20110;53.120;5.786;2023-06-24T09:34:36;9.18;;;5.53;;
33802;SDS011;20110;53.120;5.786;2023-06-24T09:37:03;8.02;;;5.53;;
33802;SDS011;20110;53.120;5.786;2023-06-24T09:39:34;11.73;;;6.00;;
33802;SDS011;20110;53.120;5.786;2023-06-24T09:42:05;6.90;;;5.93;;
33802;SDS011;20110;53.120;5.786;2023-06-24T09:44:32;7.72;;;6.15;;
33802;SDS011;20110;53.120;5.786;2023-06-24T09:46:59;7.82;;;5.78;;
33802;SDS011;20110;53.120;5.786;2023-06-24T09:49:25;6.80;;;5.20;;
33802;SDS011;20110;53.120;5.786;2023-06-24T09:51:57;9.40;;;7.13;;
33802;SDS011;20110;53.120;5.786;2023-06-24T09:54:25;8.70;;;6.20;;
33802;SDS011;20110;53.120;5.786;2023-06-24T09:56:54;7.95;;;5.22;;
33802;SDS011;20110;53.120;5.786;2023-06-24T09:59:24;10.02;;;5.50;;
33802;SDS011;20110;53.120;5.786;2023-06-24T10:01:53;9.95;;;6.25;;
33802;SDS011;20110;53.120;5.786;2023-06-24T10:04:20;11.25;;;6.90;;
33802;SDS011;20110;53.120;5.786;2023-06-24T10:06:49;8.73;;;7.22;;
33802;SDS011;20110;53.120;5.786;2023-06-24T10:09:16;9.57;;;6.72;;
33802;SDS011;20110;53.120;5.786;2023-06-24T10:11:46;13.80;;;7.13;;
33802;SDS011;20110;53.120;5.786;2023-06-24T10:14:12;9.63;;;6.10;;
33802;SDS011;20110;53.120;5.786;2023-06-24T10:16:40;7.95;;;6.50;;
33802;SDS011;20110;53.120;5.786;2023-06-24T10:19:07;6.97;;;5.47;;
33802;SDS011;20110;53.120;5.786;2023-06-24T10:24:13;7.63;;;5.78;;
33802;SDS011;20110;53.120;5.786;2023-06-24T10:26:53;10.02;;;5.93;;
33802;SDS011;20110;53.120;5.786;2023-06-24T10:29:29;6.22;;;5.10;;
33802;SDS011;20110;53.120;5.786;2023-06-24T10:32:03;6.90;;;4.82;;
33802;SDS011;20110;53.120;5.786;2023-06-24T10:34:31;6.22;;;4.57;;
33802;SDS011;20110;53.120;5.786;2023-06-24T10:42:36;7.28;;;4.90;;
33802;SDS011;20110;53.120;5.786;2023-06-24T10:47:39;6.82;;;6.18;;
33802;SDS011;20110;53.120;5.786;2023-06-24T10:50:07;8.48;;;5.28;;
33802;SDS011;20110;53.120;5.786;2023-06-24T10:52:39;10.88;;;6.72;;
33802;SDS011;20110;53.120;5.786;2023-06-24T10:55:11;9.40;;;6.97;;
33802;SDS011;20110;53.120;5.786;2023-06-24T10:57:40;11.23;;;5.88;;
33802;SDS011;20110;53.120;5.786;2023-06-24T11:00:07;6.22;;;4.68;;
33802;SDS011;20110;53.120;5.786;2023-06-24T11:02:33;7.55;;;5.78;;
33802;SDS011;20110;53.120;5.786;2023-06-24T11:05:00;7.47;;;6.72;;
33802;SDS011;20110;53.120;5.786;2023-06-24T11:07:28;6.53;;;5.90;;
33802;SDS011;20110;53.120;5.786;2023-06-24T11:10:04;6.10;;;4.80;;
33802;SDS011;20110;53.120;5.786;2023-06-24T11:12:32;4.63;;;4.22;;
33802;SDS011;20110;53.120;5.786;2023-06-24T11:15:03;7.75;;;5.20;;
33802;SDS011;20110;53.120;5.786;2023-06-24T11:17:32;9.15;;;4.35;;
33802;SDS011;20110;53.120;5.786;2023-06-24T11:20:00;10.18;;;3.85;;
33802;SDS011;20110;53.120;5.786;2023-06-24T11:22:31;4.05;;;3.65;;
33802;SDS011;20110;53.120;5.786;2023-06-24T11:24:57;4.53;;;4.13;;
33802;SDS011;20110;53.120;5.786;2023-06-24T11:27:26;4.25;;;3.33;;
33802;SDS011;20110;53.120;5.786;2023-06-24T11:29:54;3.13;;;2.92;;
33802;SDS011;20110;53.120;5.786;2023-06-24T11:32:23;3.85;;;3.40;;
33802;SDS011;20110;53.120;5.786;2023-06-24T11:34:49;3.22;;;2.80;;
33802;SDS011;20110;53.120;5.786;2023-06-24T11:37:17;5.30;;;3.30;;
33802;SDS011;20110;53.120;5.786;2023-06-24T11:39:44;6.20;;;4.03;;
33802;SDS011;20110;53.120;5.786;2023-06-24T11:42:30;6.68;;;3.90;;
33802;SDS011;20110;53.120;5.786;2023-06-24T11:45:05;5.43;;;4.85;;
33802;SDS011;20110;53.120;5.786;2023-06-24T11:47:35;5.68;;;4.10;;
33802;SDS011;20110;53.120;5.786;2023-06-24T11:50:03;6.85;;;4.00;;
33802;SDS011;20110;53.120;5.786;2023-06-24T11:52:44;5.07;;;3.60;;
33802;SDS011;20110;53.120;5.786;2023-06-24T12:00:31;5.60;;;4.88;;
33802;SDS011;20110;53.120;5.786;2023-06-24T12:03:01;8.35;;;4.88;;
33802;SDS011;20110;53.120;5.786;2023-06-24T12:05:30;8.90;;;4.43;;
33802;SDS011;20110;53.120;5.786;2023-06-24T12:08:01;7.70;;;4.05;;
33802;SDS011;20110;53.120;5.786;2023-06-24T12:10:30;4.82;;;4.32;;
33802;SDS011;20110;53.120;5.786;2023-06-24T12:13:00;6.45;;;4.43;;
33802;SDS011;20110;53.120;5.786;2023-06-24T12:15:28;3.88;;;3.33;;
33802;SDS011;20110;53.120;5.786;2023-06-24T12:17:55;5.93;;;4.20;;
33802;SDS011;20110;53.120;5.786;2023-06-24T12:20:21;5.88;;;3.97;;
33802;SDS011;20110;53.120;5.786;2023-06-24T12:22:50;5.28;;;4.05;;
33802;SDS011;20110;53.120;5.786;2023-06-24T12:25:16;4.72;;;3.05;;
33802;SDS011;20110;53.120;5.786;2023-06-24T12:27:43;3.63;;;3.25;;
33802;SDS011;20110;53.120;5.786;2023-06-24T12:30:10;4.07;;;3.08;;
33802;SDS011;20110;53.120;5.786;2023-06-24T12:32:37;4.68;;;3.05;;
33802;SDS011;20110;53.120;5.786;2023-06-24T12:35:03;3.85;;;2.72;;
33802;SDS011;20110;53.120;5.786;2023-06-24T12:37:31;7.28;;;3.40;;
33802;SDS011;20110;53.120;5.786;2023-06-24T12:39:58;4.20;;;2.88;;
33802;SDS011;20110;53.120;5.786;2023-06-24T12:42:25;4.38;;;3.20;;
33802;SDS011;20110;53.120;5.786;2023-06-24T12:44:52;6.07;;;3.17;;
33802;SDS011;20110;53.120;5.786;2023-06-24T12:47:18;7.47;;;3.47;;
33802;SDS011;20110;53.120;5.786;2023-06-24T12:49:44;3.28;;;2.97;;
33802;SDS011;20110;53.120;5.786;2023-06-24T12:52:12;3.28;;;2.97;;
33802;SDS011;20110;53.120;5.786;2023-06-24T12:54:38;3.95;;;3.33;;
33802;SDS011;20110;53.120;5.786;2023-06-24T12:57:05;4.57;;;3.60;;
33802;SDS011;20110;53.120;5.786;2023-06-24T12:59:31;4.28;;;2.88;;
33802;SDS011;20110;53.120;5.786;2023-06-24T13:01:56;7.82;;;3.60;;
33802;SDS011;20110;53.120;5.786;2023-06-24T13:04:22;5.47;;;2.95;;
33802;SDS011;20110;53.120;5.786;2023-06-24T13:06:49;6.55;;;2.67;;
33802;SDS011;20110;53.120;5.786;2023-06-24T13:09:18;4.78;;;2.95;;
33802;SDS011;20110;53.120;5.786;2023-06-24T13:11:45;3.58;;;3.17;;
33802;SDS011;20110;53.120;5.786;2023-06-24T13:14:12;3.45;;;3.00;;
33802;SDS011;20110;53.120;5.786;2023-06-24T13:16:38;4.82;;;3.47;;
33802;SDS011;20110;53.120;5.786;2023-06-24T13:19:04;3.42;;;3.13;;
33802;SDS011;20110;53.120;5.786;2023-06-24T13:21:30;4.57;;;3.40;;
33802;SDS011;20110;53.120;5.786;2023-06-24T13:23:56;2.92;;;2.70;;
33802;SDS011;20110;53.120;5.786;2023-06-24T13:26:22;3.28;;;2.97;;
33802;SDS011;20110;53.120;5.786;2023-06-24T13:28:49;4.88;;;3.35;;
33802;SDS011;20110;53.120;5.786;2023-06-24T13:31:15;3.38;;;3.08;;
33802;SDS011;20110;53.120;5.786;2023-06-24T13:33:41;3.60;;;2.80;;
33802;SDS011;20110;53.120;5.786;2023-06-24T13:36:07;4.57;;;3.33;;
33802;SDS011;20110;53.120;5.786;2023-06-24T13:38:53;3.38;;;2.85;;
33802;SDS011;20110;53.120;5.786;2023-06-24T13:41:18;3.75;;;2.63;;
33802;SDS011;20110;53.120;5.786;2023-06-24T13:43:44;6.07;;;3.10;;
33802;SDS011;20110;53.120;5.786;2023-06-24T13:46:10;3.55;;;2.92;;
33802;SDS011;20110;53.120;5.786;2023-06-24T13:48:36;3.55;;;2.60;;
33802;SDS011;20110;53.120;5.786;2023-06-24T13:51:02;2.50;;;2.30;;
33802;SDS011;20110;53.120;5.786;2023-06-24T13:53:28;2.80;;;2.38;;
33802;SDS011;20110;53.120;5.786;2023-06-24T13:55:54;3.63;;;2.60;;
33802;SDS011;20110;53.120;5.786;2023-06-24T13:58:20;3.17;;;2.85;;
33802;SDS011;20110;53.120;5.786;2023-06-24T14:00:46;4.78;;;3.20;;
33802;SDS011;20110;53.120;5.786;2023-06-24T14:03:11;3.10;;;2.80;;
33802;SDS011;20110;53.120;5.786;2023-06-24T14:05:37;5.93;;;3.33;;
33802;SDS011;20110;53.120;5.786;2023-06-24T14:08:03;3.53;;;2.78;;
33802;SDS011;20110;53.120;5.786;2023-06-24T14:10:29;5.13;;;3.03;;
33802;SDS011;20110;53.120;5.786;2023-06-24T14:12:55;5.40;;;2.70;;
33802;SDS011;20110;53.120;5.786;2023-06-24T14:15:21;13.57;;;3.35;;
33802;SDS011;20110;53.120;5.786;2023-06-24T14:17:47;5.50;;;3.63;;
33802;SDS011;20110;53.120;5.786;2023-06-24T14:20:13;4.57;;;3.08;;
33802;SDS011;20110;53.120;5.786;2023-06-24T14:22:39;4.32;;;3.10;;
33802;SDS011;20110;53.120;5.786;2023-06-24T14:25:05;4.88;;;3.35;;
33802;SDS011;20110;53.120;5.786;2023-06-24T14:27:31;4.97;;;3.60;;
33802;SDS011;20110;53.120;5.786;2023-06-24T14:29:57;5.15;;;2.97;;
33802;SDS011;20110;53.120;5.786;2023-06-24T14:32:22;5.70;;;3.20;;
33802;SDS011;20110;53.120;5.786;2023-06-24T14:34:48;3.30;;;3.03;;
33802;SDS011;20110;53.120;5.786;2023-06-24T14:37:14;3.83;;;2.95;;
33802;SDS011;20110;53.120;5.786;2023-06-24T14:39:40;5.35;;;3.55;;
33802;SDS011;20110;53.120;5.786;2023-06-24T14:42:06;6.72;;;3.47;;
33802;SDS011;20110;53.120;5.786;2023-06-24T14:44:32;3.97;;;3.60;;
33802;SDS011;20110;53.120;5.786;2023-06-24T14:46:58;4.45;;;2.88;;
33802;SDS011;20110;53.120;5.786;2023-06-24T14:49:24;5.40;;;3.40;;
33802;SDS011;20110;53.120;5.786;2023-06-24T14:51:51;3.45;;;2.65;;
33802;SDS011;20110;53.120;5.786;2023-06-24T14:54:17;3.47;;;3.17;;
33802;SDS011;20110;53.120;5.786;2023-06-24T14:56:44;4.20;;;3.80;;
33802;SDS011;20110;53.120;5.786;2023-06-24T14:59:11;4.35;;;3.10;;